sensor_id;sensor_type;location;lat;lon;timestamp;P1;durP1;ratioP1;P2;durP2;ratioP2
28844;SDS011;15976;47.938;7.758;2024-02-04T00:02:09;6.50;;;4.40;;
28844;SDS011;15976;47.938;7.758;2024-02-04T00:04:40;3.88;;;2.97;;
28844;SDS011;15976;47.938;7.758;2024-02-04T00:07:08;4.53;;;3.00;;
28844;SDS011;15976;47.938;7.758;2024-02-04T00:09:35;3.40;;;2.85;;
28844;SDS011;15976;47.938;7.758;2024-02-04T00:12:02;6.22;;;2.92;;
28844;SDS011;15976;47.938;7.758;2024-02-04T00:14:30;3.45;;;3.00;;
28844;SDS011;15976;47.938;7.758;2024-02-04T00:16:58;4.03;;;2.95;;
28844;SDS011;15976;47.938;7.758;2024-02-04T00:19:25;3.63;;;3.17;;
28844;SDS011;15976;47.938;7.758;2024-02-04T00:21:53;2.85;;;2.55;;
28844;SDS011;15976;47.938;7.758;2024-02-04T00:24:20;3.80;;;3.38;;
28844;SDS011;15976;47.938;7.758;2024-02-04T00:26:48;3.78;;;3.20;;
28844;SDS011;15976;47.938;7.758;2024-02-04T00:29:15;4.13;;;2.83;;
28844;SDS011;15976;47.938;7.758;2024-02-04T00:31:42;4.72;;;2.95;;
28844;SDS011;15976;47.938;7.758;2024-02-04T00:34:09;3.80;;;2.90;;
28844;SDS011;15976;47.938;7.758;2024-02-04T00:36:36;6.68;;;3.05;;
28844;SDS011;15976;47.938;7.758;2024-02-04T00:39:03;3.78;;;2.90;;
28844;SDS011;15976;47.938;7.758;2024-02-04T00:41:31;4.13;;;2.63;;
28844;SDS011;15976;47.938;7.758;2024-02-04T00:43:58;4.75;;;2.75;;
28844;SDS011;15976;47.938;7.758;2024-02-04T00:46:26;3.22;;;2.60;;
28844;SDS011;15976;47.938;7.758;2024-02-04T00:48:53;4.00;;;2.53;;
28844;SDS011;15976;47.938;7.758;2024-02-04T00:51:20;3.70;;;2.83;;
28844;SDS011;15976;47.938;7.758;2024-02-04T00:53:48;3.03;;;2.42;;
28844;SDS011;15976;47.938;7.758;2024-02-04T00:56:15;4.70;;;3.10;;
28844;SDS011;15976;47.938;7.758;2024-02-04T00:58:42;4.28;;;2.90;;
28844;SDS011;15976;47.938;7.758;2024-02-04T01:01:09;3.95;;;2.83;;
28844;SDS011;15976;47.938;7.758;2024-02-04T01:03:36;3.75;;;2.40;;
28844;SDS011;15976;47.938;7.758;2024-02-04T01:06:03;3.83;;;2.55;;
28844;SDS011;15976;47.938;7.758;2024-02-04T01:08:31;3.33;;;2.70;;
28844;SDS011;15976;47.938;7.758;2024-02-04T01:10:58;3.58;;;2.83;;
28844;SDS011;15976;47.938;7.758;2024-02-04T01:13:25;4.18;;;3.47;;
28844;SDS011;15976;47.938;7.758;2024-02-04T01:15:54;4.15;;;3.47;;
28844;SDS011;15976;47.938;7.758;2024-02-04T01:18:21;6.22;;;3.65;;
28844;SDS011;15976;47.938;7.758;2024-02-04T01:20:48;5.78;;;4.00;;
28844;SDS011;15976;47.938;7.758;2024-02-04T01:23:15;4.13;;;3.42;;
28844;SDS011;15976;47.938;7.758;2024-02-04T01:25:44;5.10;;;3.50;;
28844;SDS011;15976;47.938;7.758;2024-02-04T01:28:12;4.22;;;3.25;;
28844;SDS011;15976;47.938;7.758;2024-02-04T01:30:39;4.13;;;2.88;;
28844;SDS011;15976;47.938;7.758;2024-02-04T01:33:06;3.72;;;2.70;;
28844;SDS011;15976;47.938;7.758;2024-02-04T01:35:33;3.53;;;2.63;;
28844;SDS011;15976;47.938;7.758;2024-02-04T01:38:01;3.05;;;2.35;;
28844;SDS011;15976;47.938;7.758;2024-02-04T01:40:28;5.22;;;2.38;;
28844;SDS011;15976;47.938;7.758;2024-02-04T01:42:55;2.78;;;2.47;;
28844;SDS011;15976;47.938;7.758;2024-02-04T01:45:22;3.83;;;2.65;;
28844;SDS011;15976;47.938;7.758;2024-02-04T01:47:51;2.72;;;2.50;;
28844;SDS011;15976;47.938;7.758;2024-02-04T01:50:19;2.78;;;2.40;;
28844;SDS011;15976;47.938;7.758;2024-02-04T01:52:47;3.42;;;2.70;;
28844;SDS011;15976;47.938;7.758;2024-02-04T01:55:15;4.00;;;2.50;;
28844;SDS011;15976;47.938;7.758;2024-02-04T01:57:42;3.97;;;3.05;;
28844;SDS011;15976;47.938;7.758;2024-02-04T02:00:09;3.53;;;2.38;;
28844;SDS011;15976;47.938;7.758;2024-02-04T02:02:40;3.28;;;2.47;;
28844;SDS011;15976;47.938;7.758;2024-02-04T02:05:08;3.65;;;1.98;;
28844;SDS011;15976;47.938;7.758;2024-02-04T02:07:36;2.53;;;2.15;;
28844;SDS011;15976;47.938;7.758;2024-02-04T02:10:03;2.88;;;2.25;;
28844;SDS011;15976;47.938;7.758;2024-02-04T02:12:34;3.25;;;2.25;;
28844;SDS011;15976;47.938;7.758;2024-02-04T02:15:23;2.08;;;1.90;;
28844;SDS011;15976;47.938;7.758;2024-02-04T02:17:56;2.78;;;2.10;;
28844;SDS011;15976;47.938;7.758;2024-02-04T02:20:35;2.53;;;2.10;;
28844;SDS011;15976;47.938;7.758;2024-02-04T02:23:12;2.38;;;2.17;;
28844;SDS011;15976;47.938;7.758;2024-02-04T02:25:45;4.53;;;2.05;;
28844;SDS011;15976;47.938;7.758;2024-02-04T02:28:13;2.70;;;1.80;;
28844;SDS011;15976;47.938;7.758;2024-02-04T02:30:40;3.03;;;1.90;;
28844;SDS011;15976;47.938;7.758;2024-02-04T02:33:07;3.22;;;2.17;;
28844;SDS011;15976;47.938;7.758;2024-02-04T02:35:36;3.38;;;1.85;;
28844;SDS011;15976;47.938;7.758;2024-02-04T02:40:56;3.05;;;1.83;;
28844;SDS011;15976;47.938;7.758;2024-02-04T02:43:25;2.47;;;2.10;;
28844;SDS011;15976;47.938;7.758;2024-02-04T02:45:54;1.88;;;1.77;;
28844;SDS011;15976;47.938;7.758;2024-02-04T02:48:21;2.00;;;1.63;;
28844;SDS011;15976;47.938;7.758;2024-02-04T02:50:49;3.05;;;1.90;;
28844;SDS011;15976;47.938;7.758;2024-02-04T02:53:16;2.50;;;1.90;;
28844;SDS011;15976;47.938;7.758;2024-02-04T02:55:46;1.60;;;1.50;;
28844;SDS011;15976;47.938;7.758;2024-02-04T02:58:13;1.70;;;1.60;;
28844;SDS011;15976;47.938;7.758;2024-02-04T03:00:41;4.40;;;1.73;;
28844;SDS011;15976;47.938;7.758;2024-02-04T03:03:08;3.00;;;1.52;;
28844;SDS011;15976;47.938;7.758;2024-02-04T03:05:35;1.98;;;1.60;;
28844;SDS011;15976;47.938;7.758;2024-02-04T03:08:02;2.05;;;1.85;;
28844;SDS011;15976;47.938;7.758;2024-02-04T03:10:29;2.00;;;1.80;;
28844;SDS011;15976;47.938;7.758;2024-02-04T03:12:56;2.53;;;1.75;;
28844;SDS011;15976;47.938;7.758;2024-02-04T03:15:24;2.25;;;1.58;;
28844;SDS011;15976;47.938;7.758;2024-02-04T03:17:51;2.20;;;1.80;;
28844;SDS011;15976;47.938;7.758;2024-02-04T03:20:18;1.65;;;1.55;;
28844;SDS011;15976;47.938;7.758;2024-02-04T03:22:45;3.65;;;1.90;;
28844;SDS011;15976;47.938;7.758;2024-02-04T03:25:16;2.15;;;1.73;;
28844;SDS011;15976;47.938;7.758;2024-02-04T03:27:43;2.90;;;1.42;;
28844;SDS011;15976;47.938;7.758;2024-02-04T03:30:11;2.72;;;1.50;;
28844;SDS011;15976;47.938;7.758;2024-02-04T03:32:38;2.30;;;1.65;;
28844;SDS011;15976;47.938;7.758;2024-02-04T03:35:05;2.25;;;1.60;;
28844;SDS011;15976;47.938;7.758;2024-02-04T03:37:33;2.55;;;1.90;;
28844;SDS011;15976;47.938;7.758;2024-02-04T03:40:00;2.33;;;1.60;;
28844;SDS011;15976;47.938;7.758;2024-02-04T03:42:27;2.30;;;1.75;;
28844;SDS011;15976;47.938;7.758;2024-02-04T03:44:56;2.05;;;1.80;;
28844;SDS011;15976;47.938;7.758;2024-02-04T03:47:23;1.52;;;1.30;;
28844;SDS011;15976;47.938;7.758;2024-02-04T03:49:50;2.40;;;1.70;;
28844;SDS011;15976;47.938;7.758;2024-02-04T03:52:17;1.52;;;1.40;;
28844;SDS011;15976;47.938;7.758;2024-02-04T03:54:44;1.85;;;1.30;;
28844;SDS011;15976;47.938;7.758;2024-02-04T03:57:12;2.17;;;1.55;;
28844;SDS011;15976;47.938;7.758;2024-02-04T03:59:39;2.33;;;1.50;;
28844;SDS011;15976;47.938;7.758;2024-02-04T04:02:06;1.55;;;1.40;;
28844;SDS011;15976;47.938;7.758;2024-02-04T04:04:33;2.13;;;1.50;;
28844;SDS011;15976;47.938;7.758;2024-02-04T04:07:01;1.90;;;1.70;;
28844;SDS011;15976;47.938;7.758;2024-02-04T04:09:28;2.03;;;1.40;;
28844;SDS011;15976;47.938;7.758;2024-02-04T04:11:55;1.92;;;1.20;;
28844;SDS011;15976;47.938;7.758;2024-02-04T04:14:22;3.17;;;1.50;;
28844;SDS011;15976;47.938;7.758;2024-02-04T04:16:49;1.92;;;1.30;;
28844;SDS011;15976;47.938;7.758;2024-02-04T04:19:18;1.40;;;1.30;;
28844;SDS011;15976;47.938;7.758;2024-02-04T04:21:45;1.92;;;1.20;;
28844;SDS011;15976;47.938;7.758;2024-02-04T04:24:12;2.72;;;1.20;;
28844;SDS011;15976;47.938;7.758;2024-02-04T04:26:42;1.63;;;1.20;;
28844;SDS011;15976;47.938;7.758;2024-02-04T04:29:09;1.38;;;1.27;;
28844;SDS011;15976;47.938;7.758;2024-02-04T04:31:36;1.58;;;1.30;;
28844;SDS011;15976;47.938;7.758;2024-02-04T04:34:03;1.35;;;1.13;;
28844;SDS011;15976;47.938;7.758;2024-02-04T04:36:30;2.15;;;1.27;;
28844;SDS011;15976;47.938;7.758;2024-02-04T04:38:57;1.90;;;1.40;;
28844;SDS011;15976;47.938;7.758;2024-02-04T04:41:25;1.38;;;1.27;;
28844;SDS011;15976;47.938;7.758;2024-02-04T04:43:52;2.58;;;1.48;;
28844;SDS011;15976;47.938;7.758;2024-02-04T04:46:20;2.38;;;1.20;;
28844;SDS011;15976;47.938;7.758;2024-02-04T04:48:47;1.95;;;1.40;;
28844;SDS011;15976;47.938;7.758;2024-02-04T04:51:14;2.53;;;1.40;;
28844;SDS011;15976;47.938;7.758;2024-02-04T04:53:41;1.83;;;1.40;;
28844;SDS011;15976;47.938;7.758;2024-02-04T04:56:08;1.25;;;1.08;;
28844;SDS011;15976;47.938;7.758;2024-02-04T04:58:35;1.52;;;1.10;;
28844;SDS011;15976;47.938;7.758;2024-02-04T05:01:04;1.67;;;1.00;;
28844;SDS011;15976;47.938;7.758;2024-02-04T05:03:32;2.20;;;1.05;;
28844;SDS011;15976;47.938;7.758;2024-02-04T05:05:59;0.95;;;0.95;;
28844;SDS011;15976;47.938;7.758;2024-02-04T05:08:27;3.00;;;1.00;;
28844;SDS011;15976;47.938;7.758;2024-02-04T05:10:54;1.05;;;0.90;;
28844;SDS011;15976;47.938;7.758;2024-02-04T05:13:21;1.40;;;1.10;;
28844;SDS011;15976;47.938;7.758;2024-02-04T05:15:48;1.23;;;0.98;;
28844;SDS011;15976;47.938;7.758;2024-02-04T05:18:15;1.13;;;1.00;;
28844;SDS011;15976;47.938;7.758;2024-02-04T05:20:42;1.17;;;1.10;;
28844;SDS011;15976;47.938;7.758;2024-02-04T05:23:10;1.20;;;1.10;;
28844;SDS011;15976;47.938;7.758;2024-02-04T05:25:37;1.67;;;1.02;;
28844;SDS011;15976;47.938;7.758;2024-02-04T05:28:04;1.27;;;1.00;;
28844;SDS011;15976;47.938;7.758;2024-02-04T05:30:32;1.25;;;1.10;;
28844;SDS011;15976;47.938;7.758;2024-02-04T05:32:59;2.05;;;0.90;;
28844;SDS011;15976;47.938;7.758;2024-02-04T05:35:27;1.38;;;1.00;;
28844;SDS011;15976;47.938;7.758;2024-02-04T05:37:54;1.15;;;0.80;;
28844;SDS011;15976;47.938;7.758;2024-02-04T05:40:21;0.80;;;0.80;;
28844;SDS011;15976;47.938;7.758;2024-02-04T05:42:49;0.88;;;0.88;;
28844;SDS011;15976;47.938;7.758;2024-02-04T05:45:16;1.88;;;0.90;;
28844;SDS011;15976;47.938;7.758;2024-02-04T05:47:43;1.00;;;0.90;;
28844;SDS011;15976;47.938;7.758;2024-02-04T05:50:10;2.35;;;0.63;;
28844;SDS011;15976;47.938;7.758;2024-02-04T05:52:37;1.30;;;0.88;;
28844;SDS011;15976;47.938;7.758;2024-02-04T05:55:04;1.27;;;1.17;;
28844;SDS011;15976;47.938;7.758;2024-02-04T05:57:32;1.50;;;1.10;;
28844;SDS011;15976;47.938;7.758;2024-02-04T05:59:59;1.95;;;1.40;;
28844;SDS011;15976;47.938;7.758;2024-02-04T06:02:26;1.08;;;0.82;;
28844;SDS011;15976;47.938;7.758;2024-02-04T06:04:53;1.23;;;0.90;;
28844;SDS011;15976;47.938;7.758;2024-02-04T06:07:21;1.77;;;1.23;;
28844;SDS011;15976;47.938;7.758;2024-02-04T06:09:48;0.70;;;0.70;;
28844;SDS011;15976;47.938;7.758;2024-02-04T06:12:16;1.65;;;1.23;;
28844;SDS011;15976;47.938;7.758;2024-02-04T06:14:43;2.13;;;1.00;;
28844;SDS011;15976;47.938;7.758;2024-02-04T06:17:10;1.10;;;1.00;;
28844;SDS011;15976;47.938;7.758;2024-02-04T06:19:37;2.30;;;1.30;;
28844;SDS011;15976;47.938;7.758;2024-02-04T06:22:04;0.85;;;0.85;;
28844;SDS011;15976;47.938;7.758;2024-02-04T06:24:32;1.08;;;0.85;;
28844;SDS011;15976;47.938;7.758;2024-02-04T06:26:59;1.00;;;0.90;;
28844;SDS011;15976;47.938;7.758;2024-02-04T06:29:26;1.10;;;1.05;;
28844;SDS011;15976;47.938;7.758;2024-02-04T06:31:53;1.00;;;0.80;;
28844;SDS011;15976;47.938;7.758;2024-02-04T06:34:20;0.70;;;0.70;;
28844;SDS011;15976;47.938;7.758;2024-02-04T06:36:47;0.80;;;0.80;;
28844;SDS011;15976;47.938;7.758;2024-02-04T06:39:15;1.70;;;0.75;;
28844;SDS011;15976;47.938;7.758;2024-02-04T06:41:42;1.10;;;0.70;;
28844;SDS011;15976;47.938;7.758;2024-02-04T06:44:10;0.85;;;0.63;;
28844;SDS011;15976;47.938;7.758;2024-02-04T06:46:38;0.70;;;0.70;;
28844;SDS011;15976;47.938;7.758;2024-02-04T06:49:05;2.78;;;0.90;;
28844;SDS011;15976;47.938;7.758;2024-02-04T06:51:32;0.80;;;0.80;;
28844;SDS011;15976;47.938;7.758;2024-02-04T06:53:59;2.03;;;1.00;;
28844;SDS011;15976;47.938;7.758;2024-02-04T06:56:27;1.15;;;0.88;;
28844;SDS011;15976;47.938;7.758;2024-02-04T06:58:54;1.00;;;1.00;;
28844;SDS011;15976;47.938;7.758;2024-02-04T07:01:21;1.23;;;1.10;;
28844;SDS011;15976;47.938;7.758;2024-02-04T07:03:48;1.35;;;0.90;;
28844;SDS011;15976;47.938;7.758;2024-02-04T07:06:16;0.90;;;0.90;;
28844;SDS011;15976;47.938;7.758;2024-02-04T07:08:44;0.70;;;0.70;;
28844;SDS011;15976;47.938;7.758;2024-02-04T07:11:11;1.65;;;0.70;;
28844;SDS011;15976;47.938;7.758;2024-02-04T07:13:38;0.47;;;0.47;;
28844;SDS011;15976;47.938;7.758;2024-02-04T07:16:05;0.73;;;0.70;;
28844;SDS011;15976;47.938;7.758;2024-02-04T07:18:32;1.40;;;0.70;;
28844;SDS011;15976;47.938;7.758;2024-02-04T07:21:00;1.67;;;0.73;;
28844;SDS011;15976;47.938;7.758;2024-02-04T07:23:27;1.02;;;0.70;;
28844;SDS011;15976;47.938;7.758;2024-02-04T07:25:54;0.60;;;0.60;;
28844;SDS011;15976;47.938;7.758;2024-02-04T07:28:21;0.70;;;0.70;;
28844;SDS011;15976;47.938;7.758;2024-02-04T07:30:48;0.60;;;0.60;;
28844;SDS011;15976;47.938;7.758;2024-02-04T07:33:15;1.13;;;0.70;;
28844;SDS011;15976;47.938;7.758;2024-02-04T07:35:43;0.50;;;0.50;;
28844;SDS011;15976;47.938;7.758;2024-02-04T07:38:10;0.80;;;0.80;;
28844;SDS011;15976;47.938;7.758;2024-02-04T07:40:37;0.80;;;0.80;;
28844;SDS011;15976;47.938;7.758;2024-02-04T07:43:04;0.70;;;0.70;;
28844;SDS011;15976;47.938;7.758;2024-02-04T07:45:31;0.60;;;0.60;;
28844;SDS011;15976;47.938;7.758;2024-02-04T07:47:58;0.70;;;0.65;;
28844;SDS011;15976;47.938;7.758;2024-02-04T07:50:26;0.55;;;0.55;;
28844;SDS011;15976;47.938;7.758;2024-02-04T07:52:53;0.93;;;0.80;;
28844;SDS011;15976;47.938;7.758;2024-02-04T07:55:21;0.77;;;0.70;;
28844;SDS011;15976;47.938;7.758;2024-02-04T07:57:48;0.60;;;0.60;;
28844;SDS011;15976;47.938;7.758;2024-02-04T08:00:15;0.82;;;0.82;;
28844;SDS011;15976;47.938;7.758;2024-02-04T08:02:44;0.98;;;0.80;;
28844;SDS011;15976;47.938;7.758;2024-02-04T08:05:11;0.65;;;0.65;;
28844;SDS011;15976;47.938;7.758;2024-02-04T08:07:39;0.85;;;0.70;;
28844;SDS011;15976;47.938;7.758;2024-02-04T08:10:08;0.63;;;0.60;;
28844;SDS011;15976;47.938;7.758;2024-02-04T08:12:35;1.58;;;0.60;;
28844;SDS011;15976;47.938;7.758;2024-02-04T08:15:03;0.70;;;0.70;;
28844;SDS011;15976;47.938;7.758;2024-02-04T08:17:31;0.60;;;0.60;;
28844;SDS011;15976;47.938;7.758;2024-02-04T08:19:59;0.85;;;0.55;;
28844;SDS011;15976;47.938;7.758;2024-02-04T08:22:27;0.50;;;0.50;;
28844;SDS011;15976;47.938;7.758;2024-02-04T08:24:54;1.48;;;0.70;;
28844;SDS011;15976;47.938;7.758;2024-02-04T08:27:21;0.50;;;0.50;;
28844;SDS011;15976;47.938;7.758;2024-02-04T08:29:48;0.60;;;0.60;;
28844;SDS011;15976;47.938;7.758;2024-02-04T08:32:16;1.20;;;0.70;;
28844;SDS011;15976;47.938;7.758;2024-02-04T08:34:43;0.80;;;0.70;;
28844;SDS011;15976;47.938;7.758;2024-02-04T08:37:12;1.30;;;1.17;;
28844;SDS011;15976;47.938;7.758;2024-02-04T08:39:41;1.48;;;1.38;;
28844;SDS011;15976;47.938;7.758;2024-02-04T08:42:09;0.90;;;0.85;;
28844;SDS011;15976;47.938;7.758;2024-02-04T08:44:36;1.02;;;0.90;;
28844;SDS011;15976;47.938;7.758;2024-02-04T08:47:05;1.60;;;1.00;;
28844;SDS011;15976;47.938;7.758;2024-02-04T08:49:36;1.38;;;1.27;;
28844;SDS011;15976;47.938;7.758;2024-02-04T08:52:04;0.70;;;0.70;;
28844;SDS011;15976;47.938;7.758;2024-02-04T08:54:31;0.70;;;0.70;;
28844;SDS011;15976;47.938;7.758;2024-02-04T08:56:58;0.98;;;0.90;;
28844;SDS011;15976;47.938;7.758;2024-02-04T08:59:25;1.40;;;1.25;;
28844;SDS011;15976;47.938;7.758;2024-02-04T09:01:52;1.80;;;1.10;;
28844;SDS011;15976;47.938;7.758;2024-02-04T09:04:20;1.02;;;0.70;;
28844;SDS011;15976;47.938;7.758;2024-02-04T09:06:47;0.80;;;0.70;;
28844;SDS011;15976;47.938;7.758;2024-02-04T09:09:14;0.93;;;0.60;;
28844;SDS011;15976;47.938;7.758;2024-02-04T09:11:41;1.25;;;0.80;;
28844;SDS011;15976;47.938;7.758;2024-02-04T09:14:08;1.27;;;0.90;;
28844;SDS011;15976;47.938;7.758;2024-02-04T09:16:38;5.75;;;3.00;;
28844;SDS011;15976;47.938;7.758;2024-02-04T09:19:06;2.33;;;1.30;;
28844;SDS011;15976;47.938;7.758;2024-02-04T09:21:33;1.15;;;1.00;;
28844;SDS011;15976;47.938;7.758;2024-02-04T09:24:00;0.70;;;0.70;;
28844;SDS011;15976;47.938;7.758;2024-02-04T09:26:28;1.90;;;0.70;;
28844;SDS011;15976;47.938;7.758;2024-02-04T09:28:55;1.27;;;0.77;;
28844;SDS011;15976;47.938;7.758;2024-02-04T09:31:22;1.23;;;1.00;;
28844;SDS011;15976;47.938;7.758;2024-02-04T09:33:49;1.10;;;0.98;;
28844;SDS011;15976;47.938;7.758;2024-02-04T09:36:16;0.50;;;0.50;;
28844;SDS011;15976;47.938;7.758;2024-02-04T09:38:44;0.75;;;0.75;;
28844;SDS011;15976;47.938;7.758;2024-02-04T09:41:11;1.33;;;0.85;;
28844;SDS011;15976;47.938;7.758;2024-02-04T09:43:39;1.02;;;0.80;;
28844;SDS011;15976;47.938;7.758;2024-02-04T09:46:07;0.52;;;0.52;;
28844;SDS011;15976;47.938;7.758;2024-02-04T09:48:34;0.60;;;0.60;;
28844;SDS011;15976;47.938;7.758;2024-02-04T09:51:05;0.75;;;0.75;;
28844;SDS011;15976;47.938;7.758;2024-02-04T09:53:33;0.50;;;0.50;;
28844;SDS011;15976;47.938;7.758;2024-02-04T09:56:03;1.88;;;0.60;;
28844;SDS011;15976;47.938;7.758;2024-02-04T09:58:32;0.70;;;0.68;;
28844;SDS011;15976;47.938;7.758;2024-02-04T10:01:00;1.48;;;0.70;;
28844;SDS011;15976;47.938;7.758;2024-02-04T10:03:27;1.55;;;0.70;;
28844;SDS011;15976;47.938;7.758;2024-02-04T10:05:55;0.95;;;0.80;;
28844;SDS011;15976;47.938;7.758;2024-02-04T10:08:24;1.75;;;1.13;;
28844;SDS011;15976;47.938;7.758;2024-02-04T10:10:52;0.80;;;0.80;;
28844;SDS011;15976;47.938;7.758;2024-02-04T10:13:21;2.15;;;1.48;;
28844;SDS011;15976;47.938;7.758;2024-02-04T10:15:51;1.83;;;1.05;;
28844;SDS011;15976;47.938;7.758;2024-02-04T10:18:19;2.85;;;1.08;;
28844;SDS011;15976;47.938;7.758;2024-02-04T10:20:46;0.50;;;0.50;;
28844;SDS011;15976;47.938;7.758;2024-02-04T10:23:14;0.73;;;0.73;;
28844;SDS011;15976;47.938;7.758;2024-02-04T10:25:41;0.88;;;0.88;;
28844;SDS011;15976;47.938;7.758;2024-02-04T10:28:08;0.60;;;0.60;;
28844;SDS011;15976;47.938;7.758;2024-02-04T10:30:37;0.80;;;0.80;;
28844;SDS011;15976;47.938;7.758;2024-02-04T10:33:06;0.75;;;0.70;;
28844;SDS011;15976;47.938;7.758;2024-02-04T10:35:33;1.70;;;1.00;;
28844;SDS011;15976;47.938;7.758;2024-02-04T10:38:00;1.50;;;1.00;;
28844;SDS011;15976;47.938;7.758;2024-02-04T10:40:27;0.80;;;0.80;;
28844;SDS011;15976;47.938;7.758;2024-02-04T10:42:55;1.63;;;1.00;;
28844;SDS011;15976;47.938;7.758;2024-02-04T10:45:25;0.80;;;0.80;;
28844;SDS011;15976;47.938;7.758;2024-02-04T10:47:59;0.75;;;0.75;;
28844;SDS011;15976;47.938;7.758;2024-02-04T10:50:28;1.33;;;0.93;;
28844;SDS011;15976;47.938;7.758;2024-02-04T10:52:59;2.00;;;1.42;;
28844;SDS011;15976;47.938;7.758;2024-02-04T10:55:33;0.85;;;0.77;;
28844;SDS011;15976;47.938;7.758;2024-02-04T10:58:06;1.40;;;0.95;;
28844;SDS011;15976;47.938;7.758;2024-02-04T11:00:34;0.65;;;0.60;;
28844;SDS011;15976;47.938;7.758;2024-02-04T11:03:02;0.63;;;0.63;;
28844;SDS011;15976;47.938;7.758;2024-02-04T11:05:31;0.93;;;0.80;;
28844;SDS011;15976;47.938;7.758;2024-02-04T11:08:05;0.80;;;0.80;;
28844;SDS011;15976;47.938;7.758;2024-02-04T11:10:32;1.33;;;1.17;;
28844;SDS011;15976;47.938;7.758;2024-02-04T11:13:01;2.65;;;0.80;;
28844;SDS011;15976;47.938;7.758;2024-02-04T11:15:32;2.13;;;0.70;;
28844;SDS011;15976;47.938;7.758;2024-02-04T11:20:37;0.60;;;0.60;;
28844;SDS011;15976;47.938;7.758;2024-02-04T11:25:49;0.80;;;0.80;;
28844;SDS011;15976;47.938;7.758;2024-02-04T11:28:22;0.75;;;0.70;;
28844;SDS011;15976;47.938;7.758;2024-02-04T11:30:52;0.88;;;0.80;;
28844;SDS011;15976;47.938;7.758;2024-02-04T11:33:20;0.60;;;0.60;;
28844;SDS011;15976;47.938;7.758;2024-02-04T11:35:58;0.50;;;0.50;;
28844;SDS011;15976;47.938;7.758;2024-02-04T11:38:38;0.57;;;0.50;;
28844;SDS011;15976;47.938;7.758;2024-02-04T11:41:07;0.80;;;0.80;;
28844;SDS011;15976;47.938;7.758;2024-02-04T11:43:36;0.70;;;0.60;;
28844;SDS011;15976;47.938;7.758;2024-02-04T11:46:07;0.70;;;0.70;;
28844;SDS011;15976;47.938;7.758;2024-02-04T11:48:51;1.15;;;0.60;;
28844;SDS011;15976;47.938;7.758;2024-02-04T11:51:24;0.70;;;0.70;;
28844;SDS011;15976;47.938;7.758;2024-02-04T11:53:51;0.75;;;0.70;;
28844;SDS011;15976;47.938;7.758;2024-02-04T11:56:18;1.15;;;0.80;;
28844;SDS011;15976;47.938;7.758;2024-02-04T11:58:46;0.82;;;0.80;;
28844;SDS011;15976;47.938;7.758;2024-02-04T12:01:13;0.70;;;0.70;;
28844;SDS011;15976;47.938;7.758;2024-02-04T12:03:42;1.35;;;0.80;;
28844;SDS011;15976;47.938;7.758;2024-02-04T12:06:09;1.13;;;0.90;;
28844;SDS011;15976;47.938;7.758;2024-02-04T12:08:41;1.33;;;1.20;;
28844;SDS011;15976;47.938;7.758;2024-02-04T12:11:09;0.82;;;0.82;;
28844;SDS011;15976;47.938;7.758;2024-02-04T12:13:36;1.50;;;1.05;;
28844;SDS011;15976;47.938;7.758;2024-02-04T12:16:08;1.05;;;0.95;;
28844;SDS011;15976;47.938;7.758;2024-02-04T12:18:35;1.13;;;0.82;;
28844;SDS011;15976;47.938;7.758;2024-02-04T12:21:03;1.05;;;0.95;;
28844;SDS011;15976;47.938;7.758;2024-02-04T12:23:30;1.20;;;0.50;;
28844;SDS011;15976;47.938;7.758;2024-02-04T12:25:57;1.92;;;1.10;;
28844;SDS011;15976;47.938;7.758;2024-02-04T12:28:25;1.30;;;1.20;;
28844;SDS011;15976;47.938;7.758;2024-02-04T12:30:52;1.35;;;1.25;;
28844;SDS011;15976;47.938;7.758;2024-02-04T12:33:22;1.67;;;0.90;;
28844;SDS011;15976;47.938;7.758;2024-02-04T12:35:50;0.73;;;0.73;;
28844;SDS011;15976;47.938;7.758;2024-02-04T12:38:18;1.27;;;0.82;;
28844;SDS011;15976;47.938;7.758;2024-02-04T12:40:46;1.50;;;0.70;;
28844;SDS011;15976;47.938;7.758;2024-02-04T12:43:13;1.65;;;1.13;;
28844;SDS011;15976;47.938;7.758;2024-02-04T12:45:41;1.05;;;1.00;;
28844;SDS011;15976;47.938;7.758;2024-02-04T12:48:08;1.45;;;0.75;;
28844;SDS011;15976;47.938;7.758;2024-02-04T12:50:37;0.82;;;0.80;;
28844;SDS011;15976;47.938;7.758;2024-02-04T12:53:05;1.80;;;1.10;;
28844;SDS011;15976;47.938;7.758;2024-02-04T12:55:34;0.98;;;0.93;;
28844;SDS011;15976;47.938;7.758;2024-02-04T12:58:07;2.00;;;1.30;;
28844;SDS011;15976;47.938;7.758;2024-02-04T13:00:36;1.08;;;1.00;;
28844;SDS011;15976;47.938;7.758;2024-02-04T13:03:05;1.23;;;1.10;;
28844;SDS011;15976;47.938;7.758;2024-02-04T13:05:36;1.65;;;1.13;;
28844;SDS011;15976;47.938;7.758;2024-02-04T13:08:04;2.80;;;1.10;;
28844;SDS011;15976;47.938;7.758;2024-02-04T13:10:33;1.10;;;1.00;;
28844;SDS011;15976;47.938;7.758;2024-02-04T13:13:05;1.65;;;0.90;;
28844;SDS011;15976;47.938;7.758;2024-02-04T13:15:39;0.70;;;0.70;;
28844;SDS011;15976;47.938;7.758;2024-02-04T13:18:07;1.35;;;1.08;;
28844;SDS011;15976;47.938;7.758;2024-02-04T13:20:37;2.22;;;1.05;;
28844;SDS011;15976;47.938;7.758;2024-02-04T13:23:05;1.02;;;0.93;;
28844;SDS011;15976;47.938;7.758;2024-02-04T13:25:32;1.45;;;1.13;;
28844;SDS011;15976;47.938;7.758;2024-02-04T13:28:00;0.80;;;0.80;;
28844;SDS011;15976;47.938;7.758;2024-02-04T13:30:27;0.90;;;0.90;;
28844;SDS011;15976;47.938;7.758;2024-02-04T13:32:55;1.02;;;0.98;;
28844;SDS011;15976;47.938;7.758;2024-02-04T13:35:24;1.60;;;0.98;;
28844;SDS011;15976;47.938;7.758;2024-02-04T13:37:51;0.80;;;0.80;;
28844;SDS011;15976;47.938;7.758;2024-02-04T13:40:19;1.30;;;0.85;;
28844;SDS011;15976;47.938;7.758;2024-02-04T13:42:47;0.98;;;0.93;;
28844;SDS011;15976;47.938;7.758;2024-02-04T13:45:15;1.38;;;1.02;;
28844;SDS011;15976;47.938;7.758;2024-02-04T13:47:43;1.67;;;1.02;;
28844;SDS011;15976;47.938;7.758;2024-02-04T13:50:11;0.52;;;0.52;;
28844;SDS011;15976;47.938;7.758;2024-02-04T13:52:38;1.88;;;1.10;;
28844;SDS011;15976;47.938;7.758;2024-02-04T13:55:06;1.17;;;1.08;;
28844;SDS011;15976;47.938;7.758;2024-02-04T13:57:34;1.30;;;1.20;;
28844;SDS011;15976;47.938;7.758;2024-02-04T14:00:03;1.35;;;1.10;;
28844;SDS011;15976;47.938;7.758;2024-02-04T14:02:32;2.03;;;0.98;;
28844;SDS011;15976;47.938;7.758;2024-02-04T14:04:59;2.67;;;1.20;;
28844;SDS011;15976;47.938;7.758;2024-02-04T14:07:27;1.33;;;0.80;;
28844;SDS011;15976;47.938;7.758;2024-02-04T14:09:54;1.30;;;1.20;;
28844;SDS011;15976;47.938;7.758;2024-02-04T14:12:22;1.30;;;1.20;;
28844;SDS011;15976;47.938;7.758;2024-02-04T14:14:50;2.92;;;1.48;;
28844;SDS011;15976;47.938;7.758;2024-02-04T14:17:17;1.75;;;1.00;;
28844;SDS011;15976;47.938;7.758;2024-02-04T14:19:45;1.63;;;0.80;;
28844;SDS011;15976;47.938;7.758;2024-02-04T14:22:15;1.92;;;1.40;;
28844;SDS011;15976;47.938;7.758;2024-02-04T14:24:44;2.42;;;1.40;;
28844;SDS011;15976;47.938;7.758;2024-02-04T14:27:12;2.17;;;1.45;;
28844;SDS011;15976;47.938;7.758;2024-02-04T14:29:39;3.13;;;1.65;;
28844;SDS011;15976;47.938;7.758;2024-02-04T14:32:06;4.60;;;1.70;;
28844;SDS011;15976;47.938;7.758;2024-02-04T14:34:34;3.80;;;1.70;;
28844;SDS011;15976;47.938;7.758;2024-02-04T14:37:02;3.67;;;1.60;;
28844;SDS011;15976;47.938;7.758;2024-02-04T14:39:29;3.75;;;1.67;;
28844;SDS011;15976;47.938;7.758;2024-02-04T14:41:58;3.05;;;1.42;;
28844;SDS011;15976;47.938;7.758;2024-02-04T14:44:25;4.25;;;1.80;;
28844;SDS011;15976;47.938;7.758;2024-02-04T14:46:52;2.88;;;1.45;;
28844;SDS011;15976;47.938;7.758;2024-02-04T14:49:20;2.35;;;1.50;;
28844;SDS011;15976;47.938;7.758;2024-02-04T14:51:47;5.70;;;1.52;;
28844;SDS011;15976;47.938;7.758;2024-02-04T14:54:14;2.15;;;1.30;;
28844;SDS011;15976;47.938;7.758;2024-02-04T14:56:41;2.53;;;1.67;;
28844;SDS011;15976;47.938;7.758;2024-02-04T14:59:09;1.65;;;1.33;;
28844;SDS011;15976;47.938;7.758;2024-02-04T15:01:48;3.90;;;1.73;;